This is the latest recevied weather packets stored in our database for station/object EA1PVC-10. If no packets are shown the sender has not sent any weather packets the latest 10 day(s).
| Time | Temp. | Humidity | Pressure | Rain* | Wind** | Luminosity | Snow |
|---|---|---|---|---|---|---|---|
| 1777746477 | 14.44° C | 100% | 920.9 hPa | - | - | - | - |
| 1777745577 | 14.44° C | 100% | 921.1 hPa | - | - | - | - |
| 1777744677 | 15° C | 98% | 920.9 hPa | - | - | - | - |
| 1777743777 | 18.89° C | 84% | 920.9 hPa | - | - | - | - |
| 1777742881 | 10.56° C | 93% | 914.1 hPa | - | - | - | - |
| 1777741965 | 13.89° C | 100% | 921.2 hPa | - | - | - | - |
| 1777741065 | 12.78° C | 100% | 921.5 hPa | - | - | - | - |
| 1777740165 | 13.33° C | 100% | 921.1 hPa | - | - | - | - |
| 1777739265 | 13.89° C | 100% | 920.9 hPa | - | - | - | - |
| 1777738365 | 14.44° C | 97% | 921.1 hPa | - | - | - | - |
| 1777737465 | 20° C | 88% | 921 hPa | - | - | - | - |
| 1777736565 | 13.89° C | 96% | 921 hPa | - | - | - | - |
| 1777735665 | 15.56° C | 92% | 921.2 hPa | - | - | - | - |
| 1777734765 | 20° C | 46% | 921.2 hPa | - | - | - | - |
| 1777733865 | 22.22° C | 42% | 921.1 hPa | - | - | - | - |
| 1777732965 | 22.22° C | 41% | 921.4 hPa | - | - | - | - |
| 1777732065 | 26.11° C | 35% | 922.2 hPa | - | - | - | - |
| 1777731153 | 23.89° C | 40% | 921.7 hPa | - | - | - | - |
| 1777730253 | 18.89° C | 58% | 921.9 hPa | - | - | - | - |
| 1777729353 | 20° C | 48% | 922 hPa | - | - | - | - |
| 1777728453 | 20° C | 49% | 922.1 hPa | - | - | - | - |
| 1777727553 | 20° C | 51% | 922.4 hPa | - | - | - | - |
| 1777726653 | 20.56° C | 48% | 922.6 hPa | - | - | - | - |
| 1777725753 | 15° C | 49% | 915.8 hPa | - | - | - | - |
| 1777724853 | 20.56° C | 48% | 922.3 hPa | - | - | - | - |
* Rain since midnight (hover to see other rain measurements)
** Current wind speed in m/s (hover to see current wind gust speed)